createdAt,value
2019-05-17T00:00:42.049Z,79.79
2019-05-17T00:03:17.032Z,79.72
2019-05-17T00:05:51.009Z,79.92
2019-05-17T00:08:31.921Z,79.64
2019-05-17T00:10:57.168Z,79.62
2019-05-17T00:13:29.530Z,79.47
2019-05-17T00:16:01.192Z,79.73
2019-05-17T00:18:32.744Z,79.49
2019-05-17T00:21:04.420Z,79.30
2019-05-17T00:23:37.516Z,79.44
2019-05-17T00:26:09.838Z,79.29
2019-05-17T00:28:41.429Z,79.24
2019-05-17T00:31:13.575Z,79.12
2019-05-17T00:33:47.106Z,79.39
2019-05-17T00:36:19.353Z,79.55
2019-05-17T00:38:51.740Z,79.63
2019-05-17T00:41:23.622Z,79.71
2019-05-17T00:43:56.910Z,79.87
2019-05-17T00:46:30.178Z,79.83
2019-05-17T00:49:02.028Z,79.60
2019-05-17T00:51:34.047Z,79.64
2019-05-17T00:54:06.824Z,79.81
2019-05-17T00:56:38.547Z,79.65
2019-05-17T00:59:10.411Z,79.27
2019-05-17T01:01:42.045Z,79.29
2019-05-17T01:04:14.408Z,79.33
2019-05-17T01:06:47.006Z,79.33
2019-05-17T01:09:19.145Z,79.59
2019-05-17T01:11:51.199Z,79.44
2019-05-17T01:14:22.891Z,79.39
2019-05-17T01:16:56.493Z,79.33
2019-05-17T01:19:28.152Z,79.36
2019-05-17T01:22:00.407Z,79.50
2019-05-17T01:24:32.430Z,79.47
2019-05-17T01:27:06.517Z,79.12
2019-05-17T01:29:38.558Z,79.22
2019-05-17T01:32:10.201Z,79.25
2019-05-17T01:34:41.781Z,79.42
2019-05-17T01:37:14.036Z,79.38
2019-05-17T01:39:46.850Z,79.55
2019-05-17T01:42:19.175Z,79.46
2019-05-17T01:44:51.335Z,79.27
2019-05-17T01:47:23.520Z,78.99
2019-05-17T01:49:57.571Z,78.87
2019-05-17T01:52:29.134Z,78.98
2019-05-17T01:55:01.051Z,79.42
2019-05-17T01:57:32.298Z,79.47
2019-05-17T02:00:06.486Z,79.65
2019-05-17T02:02:41.046Z,79.74
2019-05-17T02:05:12.493Z,79.66
2019-05-17T02:07:46.388Z,79.36
2019-05-17T02:10:18.278Z,79.44
2019-05-17T02:12:50.413Z,79.41
2019-05-17T02:15:23.296Z,79.37
2019-05-17T02:17:57.243Z,79.38
2019-05-17T02:20:28.449Z,79.23
2019-05-17T02:23:00.413Z,79.12
2019-05-17T02:25:32.053Z,79.32
2019-05-17T02:28:03.410Z,79.29
2019-05-17T02:30:35.362Z,79.42
2019-05-17T02:33:07.221Z,79.58
2019-05-17T02:35:42.690Z,79.40
2019-05-17T02:38:13.665Z,79.45
2019-05-17T02:40:45.751Z,79.41
2019-05-17T02:43:17.375Z,79.35
2019-05-17T02:45:52.494Z,79.26
2019-05-17T02:48:23.495Z,79.26
2019-05-17T02:50:56.287Z,79.14
2019-05-17T02:53:28.161Z,79.34
2019-05-17T02:56:02.960Z,79.42
2019-05-17T02:58:33.195Z,79.02
2019-05-17T03:01:05.750Z,79.12
2019-05-17T03:03:37.449Z,79.14
2019-05-17T03:06:09.088Z,78.81
2019-05-17T03:08:42.957Z,79.07
2019-05-17T03:11:14.053Z,79.05
2019-05-17T03:13:45.921Z,79.17
2019-05-17T03:16:17.502Z,79.00
2019-05-17T03:18:53.006Z,78.81
2019-05-17T03:21:23.746Z,78.76
2019-05-17T03:23:56.407Z,78.67
2019-05-17T03:26:28.264Z,78.74
2019-05-17T03:29:03.249Z,78.57
2019-05-17T03:31:41.761Z,78.47
2019-05-17T03:34:07.749Z,78.09
2019-05-17T03:36:38.936Z,77.93
2019-05-17T03:39:13.022Z,77.57
2019-05-17T03:41:44.710Z,77.44
2019-05-17T03:44:16.517Z,77.45
2019-05-17T03:46:48.702Z,77.27
2019-05-17T03:49:22.302Z,77.41
2019-05-17T03:51:55.541Z,77.72
2019-05-17T03:54:27.109Z,77.57
2019-05-17T03:57:02.633Z,77.36
2019-05-17T03:59:33.505Z,77.20
2019-05-17T04:02:05.552Z,77.47
2019-05-17T04:04:38.541Z,77.44
2019-05-17T04:07:12.748Z,77.70
2019-05-17T04:09:43.865Z,77.80
2019-05-17T04:12:16.163Z,77.88
2019-05-17T04:14:48.377Z,77.82
2019-05-17T04:17:22.756Z,78.30
2019-05-17T04:19:54.262Z,78.35
2019-05-17T04:22:26.209Z,78.48
2019-05-17T04:24:58.547Z,78.41
2019-05-17T04:27:32.713Z,78.50
2019-05-17T04:30:04.108Z,78.30
2019-05-17T04:32:35.595Z,78.21
2019-05-17T04:35:07.324Z,78.37
2019-05-17T04:37:39.286Z,78.36
2019-05-17T04:40:14.194Z,78.09
2019-05-17T04:42:46.166Z,78.19
2019-05-17T04:45:17.464Z,78.00
2019-05-17T04:47:52.693Z,77.86
2019-05-17T04:50:23.344Z,77.73
2019-05-17T04:52:54.936Z,77.57
2019-05-17T04:55:26.725Z,77.57
2019-05-17T04:57:58.554Z,77.28
2019-05-17T05:00:33.545Z,77.23
2019-05-17T05:03:04.309Z,77.02
2019-05-17T05:05:36.521Z,76.83
2019-05-17T05:08:08.569Z,76.91
2019-05-17T05:10:42.666Z,76.80
2019-05-17T05:13:13.627Z,76.90
2019-05-17T05:15:52.199Z,76.49
2019-05-17T05:18:23.931Z,76.14
2019-05-17T05:20:55.403Z,75.64
2019-05-17T05:23:27.498Z,75.01
2019-05-17T05:25:58.731Z,74.49
2019-05-17T05:28:31.815Z,74.46
2019-05-17T05:31:04.089Z,73.50
2019-05-17T05:33:35.649Z,73.14
2019-05-17T05:36:07.004Z,73.02
2019-05-17T05:38:38.570Z,72.36
2019-05-17T05:41:12.204Z,72.46
2019-05-17T05:43:45.232Z,71.95
2019-05-17T05:46:17.041Z,72.36
2019-05-17T05:48:49.246Z,72.52
2019-05-17T05:51:21.639Z,72.17
2019-05-17T05:53:52.666Z,72.17
2019-05-17T05:56:24.335Z,71.70
2019-05-17T05:58:56.086Z,72.72
2019-05-17T06:01:27.911Z,72.67
2019-05-17T06:04:02.510Z,72.36
2019-05-17T06:06:33.036Z,71.97
2019-05-17T06:09:06.461Z,71.96
2019-05-17T06:11:38.019Z,71.70
2019-05-17T06:14:11.988Z,72.03
2019-05-17T06:16:42.727Z,72.08
2019-05-17T06:19:14.491Z,71.14
2019-05-17T06:21:46.714Z,70.53
2019-05-17T06:24:18.478Z,70.39
2019-05-17T06:26:52.370Z,70.15
2019-05-17T06:29:23.425Z,70.21
2019-05-17T06:31:54.963Z,70.18
2019-05-17T06:34:26.633Z,70.03
2019-05-17T06:36:58.214Z,70.03
2019-05-17T06:39:29.736Z,70.12
2019-05-17T06:42:02.729Z,69.56
2019-05-17T06:44:34.795Z,68.85
2019-05-17T06:47:06.435Z,69.17
2019-05-17T06:49:38.320Z,69.14
2019-05-17T06:52:11.663Z,69.30
2019-05-17T06:54:43.489Z,68.35
2019-05-17T06:57:15.016Z,67.92
2019-05-17T06:59:46.663Z,67.84
2019-05-17T07:02:19.729Z,67.67
2019-05-17T07:04:52.268Z,67.84
2019-05-17T07:07:27.056Z,67.28
2019-05-17T07:10:00.504Z,67.67
2019-05-17T07:12:33.678Z,67.52
2019-05-17T07:15:05.484Z,67.83
2019-05-17T07:17:39.789Z,67.78
2019-05-17T07:20:10.812Z,68.02
2019-05-17T07:22:43.013Z,67.60
2019-05-17T07:25:14.621Z,68.02
2019-05-17T07:27:46.483Z,67.83
2019-05-17T07:30:19.501Z,67.56
2019-05-17T07:32:51.748Z,67.03
2019-05-17T07:35:23.511Z,67.02
2019-05-17T07:37:55.513Z,66.32
2019-05-17T07:40:27.497Z,66.75
2019-05-17T07:43:10.183Z,67.75
2019-05-17T07:45:32.828Z,66.31
2019-05-17T07:48:04.506Z,65.82
2019-05-17T07:50:36.151Z,65.74
2019-05-17T07:53:09.960Z,66.63
2019-05-17T07:55:40.442Z,66.08
2019-05-17T07:58:12.142Z,66.72
2019-05-17T08:00:44.259Z,67.17
2019-05-17T08:03:16.187Z,66.51
2019-05-17T08:05:50.463Z,66.00
2019-05-17T08:08:21.415Z,65.95
2019-05-17T08:10:53.750Z,65.45
2019-05-17T08:13:33.017Z,65.12
2019-05-17T08:16:01.788Z,64.23
2019-05-17T08:18:33.417Z,64.45
2019-05-17T08:21:04.971Z,64.57
2019-05-17T08:23:36.915Z,64.89
2019-05-17T08:26:10.750Z,64.62
2019-05-17T08:28:41.992Z,65.04
2019-05-17T08:31:13.843Z,64.87
2019-05-17T08:33:45.745Z,64.47
2019-05-17T08:36:17.352Z,64.38
2019-05-17T08:38:50.163Z,63.35
2019-05-17T08:41:22.066Z,63.98
2019-05-17T08:43:53.620Z,63.61
2019-05-17T08:46:25.445Z,63.48
2019-05-17T08:48:57.044Z,63.39
2019-05-17T08:51:30.475Z,63.45
2019-05-17T08:54:02.260Z,62.99
2019-05-17T08:56:33.779Z,62.68
2019-05-17T08:59:05.515Z,62.92
2019-05-17T09:01:39.203Z,63.27
2019-05-17T09:04:10.640Z,63.04
2019-05-17T09:06:42.125Z,63.84
2019-05-17T09:09:13.994Z,64.17
2019-05-17T09:11:45.728Z,64.00
2019-05-17T09:14:17.029Z,63.58
2019-05-17T09:16:50.472Z,64.34
2019-05-17T09:19:23.133Z,63.80
2019-05-17T09:21:55.279Z,64.28
2019-05-17T09:24:26.504Z,63.79
2019-05-17T09:26:59.887Z,63.74
2019-05-17T09:29:32.188Z,63.60
2019-05-17T09:32:03.688Z,63.37
2019-05-17T09:34:35.497Z,63.90
2019-05-17T09:37:06.787Z,64.27
2019-05-17T09:39:40.167Z,63.82
2019-05-17T09:42:12.824Z,62.65
2019-05-17T09:44:44.199Z,61.78
2019-05-17T09:47:16.513Z,60.42
2019-05-17T09:49:50.178Z,59.84
2019-05-17T09:53:00.329Z,60.52
2019-05-17T09:55:32.265Z,61.18
2019-05-17T09:58:03.613Z,61.56
2019-05-17T10:00:34.992Z,61.20
2019-05-17T10:03:06.608Z,61.09
2019-05-17T10:05:40.536Z,61.45
2019-05-17T10:08:11.466Z,61.72
2019-05-17T10:10:42.717Z,60.88
2019-05-17T10:13:13.936Z,59.58
2019-05-17T10:15:45.693Z,59.26
2019-05-17T10:18:17.290Z,57.83
2019-05-17T10:20:50.609Z,57.82
2019-05-17T10:23:22.099Z,57.01
2019-05-17T10:25:53.342Z,56.43
2019-05-17T10:28:25.299Z,55.59
2019-05-17T10:31:02.055Z,56.12
2019-05-17T10:33:31.278Z,55.74
2019-05-17T10:36:03.358Z,56.16
2019-05-17T10:38:34.992Z,56.01
2019-05-17T10:41:06.055Z,55.46
2019-05-17T10:43:39.249Z,54.60
2019-05-17T10:46:10.822Z,55.26
2019-05-17T10:48:42.656Z,54.43
2019-05-17T10:51:14.504Z,55.47
2019-05-17T10:53:46.056Z,54.02
2019-05-17T10:56:19.915Z,54.23
2019-05-17T10:58:50.754Z,53.90
2019-05-17T11:01:22.042Z,53.04
2019-05-17T11:03:53.317Z,53.73
2019-05-17T11:06:24.595Z,53.21
2019-05-17T11:08:56.341Z,53.78
2019-05-17T11:11:27.891Z,53.07
2019-05-17T11:13:59.638Z,51.43
2019-05-17T11:16:31.871Z,50.65
2019-05-17T11:19:03.273Z,52.29
2019-05-17T11:21:34.840Z,52.56
2019-05-17T11:24:06.862Z,51.79
2019-05-17T11:26:39.112Z,52.97
2019-05-17T11:29:10.956Z,52.79
2019-05-17T11:31:42.211Z,53.01
2019-05-17T11:34:13.792Z,52.59
2019-05-17T11:36:45.334Z,50.65
2019-05-17T11:39:16.983Z,49.92
2019-05-17T11:41:49.547Z,49.70
2019-05-17T11:44:20.821Z,50.17
2019-05-17T11:46:52.235Z,49.67
2019-05-17T11:49:24.340Z,49.23
2019-05-17T11:51:56.392Z,49.25
2019-05-17T11:54:28.029Z,50.38
2019-05-17T11:57:00.080Z,50.50
2019-05-17T11:59:32.624Z,50.29
2019-05-17T12:02:04.190Z,49.42
2019-05-17T12:04:35.803Z,50.55
2019-05-17T12:07:07.550Z,50.86
2019-05-17T12:09:39.149Z,50.92
2019-05-17T12:12:10.870Z,52.42
2019-05-17T12:14:42.796Z,51.90
2019-05-17T12:17:14.570Z,50.98
2019-05-17T12:19:46.101Z,51.61
2019-05-17T12:22:17.144Z,50.80
2019-05-17T12:24:48.443Z,49.91
2019-05-17T12:27:20.403Z,51.16
2019-05-17T12:29:52.196Z,50.54
2019-05-17T12:32:23.983Z,50.77
2019-05-17T12:34:55.440Z,50.53
2019-05-17T12:37:27.583Z,50.20
2019-05-17T12:39:59.564Z,50.09
2019-05-17T12:42:30.919Z,50.84
2019-05-17T12:45:02.697Z,50.85
2019-05-17T12:47:34.325Z,50.24
2019-05-17T12:50:06.064Z,50.81
2019-05-17T12:52:37.621Z,51.26
2019-05-17T12:55:09.753Z,51.36
2019-05-17T12:57:41.297Z,51.62
2019-05-17T13:00:13.855Z,51.94
2019-05-17T13:02:45.567Z,50.68
2019-05-17T13:05:17.666Z,50.92
2019-05-17T13:07:49.814Z,50.36
2019-05-17T13:10:21.460Z,49.84
2019-05-17T13:12:53.319Z,50.17
2019-05-17T13:15:25.191Z,50.79
2019-05-17T13:17:56.991Z,51.13
2019-05-17T13:20:28.412Z,51.05
2019-05-17T13:23:00.042Z,50.86
2019-05-17T13:25:31.366Z,50.98
2019-05-17T13:28:02.984Z,51.32
2019-05-17T13:30:35.057Z,51.33
2019-05-17T13:33:06.690Z,51.87
2019-05-17T13:35:38.442Z,52.12
2019-05-17T13:38:09.973Z,52.30
2019-05-17T13:40:41.536Z,52.30
2019-05-17T13:43:13.390Z,52.41
2019-05-17T13:45:44.883Z,52.53
2019-05-17T13:48:16.506Z,52.88
2019-05-17T13:50:51.862Z,51.37
2019-05-17T13:53:21.540Z,51.76
2019-05-17T13:55:52.831Z,51.06
2019-05-17T13:58:24.800Z,50.29
2019-05-17T14:00:57.625Z,50.26
2019-05-17T14:03:29.325Z,50.43
2019-05-17T14:06:03.407Z,49.58
2019-05-17T14:08:34.953Z,49.73
2019-05-17T14:11:06.622Z,49.60
2019-05-17T14:13:38.681Z,49.56
2019-05-17T14:16:10.325Z,49.01
2019-05-17T14:18:42.183Z,48.88
2019-05-17T14:21:13.699Z,47.75
2019-05-17T14:23:46.305Z,48.00
2019-05-17T14:26:18.274Z,48.13
2019-05-17T14:28:50.272Z,48.13
2019-05-17T14:31:21.619Z,48.67
2019-05-17T14:33:53.642Z,48.71
2019-05-17T14:36:25.633Z,49.08
2019-05-17T14:38:57.535Z,49.07
2019-05-17T14:41:29.412Z,48.86
2019-05-17T14:44:01.398Z,49.79
2019-05-17T14:46:33.356Z,50.09
2019-05-17T14:49:05.726Z,50.17
2019-05-17T14:51:37.643Z,49.77
2019-05-17T14:54:08.937Z,50.56
2019-05-17T14:56:41.492Z,51.12
2019-05-17T14:59:13.349Z,51.44
2019-05-17T15:01:45.020Z,51.35
2019-05-17T15:04:16.991Z,51.32
2019-05-17T15:06:48.686Z,51.18
2019-05-17T15:09:21.271Z,50.68
2019-05-17T15:11:53.109Z,51.11
2019-05-17T15:14:29.431Z,51.39
2019-05-17T15:17:00.376Z,50.74
2019-05-17T15:19:32.157Z,50.59
2019-05-17T15:22:04.058Z,49.14
2019-05-17T15:24:38.196Z,48.57
2019-05-17T15:33:39.212Z,47.58
2019-05-17T15:36:11.489Z,48.54
2019-05-17T15:38:43.545Z,49.59
2019-05-17T15:41:15.325Z,50.45
2019-05-17T15:43:47.860Z,50.82
2019-05-17T15:46:20.445Z,50.76
2019-05-17T15:48:52.015Z,51.25
2019-05-17T15:51:23.132Z,52.48
2019-05-17T15:53:54.496Z,51.95
2019-05-17T15:56:25.609Z,52.20
2019-05-17T15:58:57.222Z,52.55
2019-05-17T16:01:28.319Z,52.46
2019-05-17T16:03:59.385Z,52.14
2019-05-17T16:06:31.962Z,51.58
2019-05-17T16:09:05.079Z,52.03
2019-05-17T16:11:36.199Z,51.97
2019-05-17T16:14:07.512Z,51.06
2019-05-17T16:16:38.731Z,50.95
2019-05-17T16:19:09.774Z,52.29
2019-05-17T16:21:41.281Z,52.78
2019-05-17T16:24:12.884Z,52.67
2019-05-17T16:26:43.775Z,52.46
2019-05-17T16:29:15.097Z,52.60
2019-05-17T16:31:46.139Z,52.17
2019-05-17T16:34:17.507Z,51.96
2019-05-17T16:36:48.778Z,52.10
2019-05-17T16:39:20.124Z,53.05
2019-05-17T16:41:51.111Z,51.94
2019-05-17T16:44:24.872Z,51.91
2019-05-17T16:46:56.132Z,51.91
2019-05-17T16:49:28.562Z,52.50
2019-05-17T16:51:59.604Z,52.47
2019-05-17T16:54:30.997Z,52.36
2019-05-17T16:57:02.016Z,52.92
2019-05-17T16:59:33.017Z,52.89
2019-05-17T17:02:04.339Z,53.31
2019-05-17T17:04:36.351Z,53.70
2019-05-17T17:07:07.452Z,53.54
2019-05-17T17:09:39.447Z,52.80
2019-05-17T17:12:10.520Z,53.11
2019-05-17T17:14:42.003Z,53.29
2019-05-17T17:17:13.646Z,54.16
2019-05-17T17:19:45.108Z,53.75
2019-05-17T17:22:16.307Z,54.45
2019-05-17T17:24:47.334Z,54.75
2019-05-17T17:27:18.573Z,54.44
2019-05-17T17:29:50.068Z,54.68
2019-05-17T17:32:21.913Z,54.67
2019-05-17T17:34:53.925Z,55.09
2019-05-17T17:37:25.406Z,55.14
2019-05-17T17:39:56.710Z,55.12
2019-05-17T17:42:29.436Z,56.17
2019-05-17T17:45:00.797Z,56.18
2019-05-17T17:47:32.270Z,56.53
2019-05-17T17:50:04.768Z,57.25
2019-05-17T17:52:37.594Z,57.28
2019-05-17T17:55:08.915Z,57.67
2019-05-17T17:57:41.605Z,57.88
2019-05-17T18:00:14.097Z,57.82
2019-05-17T18:02:45.593Z,56.89
2019-05-17T18:05:16.784Z,56.40
2019-05-17T18:07:49.236Z,54.09
2019-05-17T18:10:30.924Z,55.16
2019-05-17T18:13:02.084Z,55.97
2019-05-17T18:15:41.164Z,56.25
2019-05-17T18:18:12.986Z,57.46
2019-05-17T18:20:44.215Z,57.73
2019-05-17T18:23:19.030Z,58.09
2019-05-17T18:25:48.712Z,57.87
2019-05-17T18:28:23.166Z,58.85
2019-05-17T18:30:55.004Z,58.83
2019-05-17T18:33:26.886Z,58.91
2019-05-17T18:35:58.898Z,58.82
2019-05-17T18:38:33.959Z,58.60
2019-05-17T18:41:06.151Z,59.65
2019-05-17T18:43:37.185Z,59.76
2019-05-17T18:46:08.866Z,60.48
2019-05-17T18:48:40.162Z,60.02
2019-05-17T18:51:11.897Z,60.12
2019-05-17T18:53:43.870Z,60.40
2019-05-17T18:56:15.865Z,60.44
2019-05-17T18:58:47.557Z,61.19
2019-05-17T19:01:20.758Z,61.50
2019-05-17T19:03:53.701Z,61.69
2019-05-17T19:06:25.075Z,61.90
2019-05-17T19:08:59.002Z,62.05
2019-05-17T19:11:33.771Z,62.16
2019-05-17T19:14:05.073Z,62.16
2019-05-17T19:16:36.498Z,61.96
2019-05-17T19:19:09.010Z,62.41
2019-05-17T19:21:41.590Z,62.19
2019-05-17T19:24:13.091Z,62.30
2019-05-17T19:26:45.323Z,62.33
2019-05-17T19:29:17.051Z,63.06
2019-05-17T19:31:49.326Z,63.08
2019-05-17T19:34:21.066Z,63.15
2019-05-17T19:36:52.773Z,63.44
2019-05-17T19:39:24.711Z,63.41
2019-05-17T19:41:56.137Z,63.68
2019-05-17T19:44:28.401Z,64.03
2019-05-17T19:46:59.966Z,64.11
2019-05-17T19:49:35.259Z,64.33
2019-05-17T19:52:09.320Z,64.40
2019-05-17T19:54:40.296Z,64.95
2019-05-17T19:57:12.100Z,64.99
2019-05-17T19:59:43.479Z,64.96
2019-05-17T20:02:14.576Z,64.44
2019-05-17T20:04:45.991Z,65.30
2019-05-17T20:07:17.825Z,65.63
2019-05-17T20:09:49.999Z,65.27
2019-05-17T20:12:21.153Z,65.54
2019-05-17T20:14:52.332Z,65.52
2019-05-17T20:17:23.525Z,65.87
2019-05-17T20:19:55.084Z,66.14
2019-05-17T20:22:26.439Z,66.33
2019-05-17T20:24:57.850Z,66.72
2019-05-17T20:27:28.988Z,67.24
2019-05-17T20:30:00.325Z,67.39
2019-05-17T20:32:31.769Z,67.63
2019-05-17T20:35:02.887Z,67.55
2019-05-17T20:37:36.884Z,67.52
2019-05-17T20:40:08.283Z,68.02
2019-05-17T20:42:39.426Z,67.83
2019-05-17T20:45:11.355Z,68.08
2019-05-17T20:47:42.757Z,68.41
2019-05-17T20:50:15.714Z,67.90
2019-05-17T20:52:47.308Z,68.32
2019-05-17T20:55:18.963Z,68.74
2019-05-17T20:57:51.200Z,68.16
2019-05-17T21:00:22.280Z,68.83
2019-05-17T21:02:53.320Z,69.12
2019-05-17T21:05:24.690Z,69.74
2019-05-17T21:07:56.045Z,69.95
2019-05-17T21:10:27.088Z,70.17
2019-05-17T21:12:58.107Z,70.61
2019-05-17T21:15:29.429Z,70.89
2019-05-17T21:18:01.137Z,70.54
2019-05-17T21:20:32.425Z,70.92
2019-05-17T21:23:03.567Z,70.37
2019-05-17T21:25:34.651Z,70.47
2019-05-17T21:28:05.646Z,70.66
2019-05-17T21:30:36.767Z,70.59
2019-05-17T21:33:08.014Z,70.82
2019-05-17T21:35:39.016Z,70.66
2019-05-17T21:38:10.083Z,71.06
2019-05-17T21:40:41.561Z,71.38
2019-05-17T21:43:12.665Z,71.40
2019-05-17T21:45:45.854Z,71.62
2019-05-17T21:48:17.148Z,71.42
2019-05-17T21:50:48.123Z,71.24
2019-05-17T21:53:19.119Z,71.40
2019-05-17T21:55:50.069Z,71.65
2019-05-17T21:58:21.325Z,71.67
2019-05-17T22:01:23.268Z,71.70
2019-05-17T22:03:58.651Z,71.69
2019-05-17T22:06:29.695Z,71.74
2019-05-17T22:09:01.219Z,72.03
2019-05-17T22:11:34.145Z,71.68
2019-05-17T22:14:05.424Z,71.90
2019-05-17T22:16:36.739Z,71.72
2019-05-17T22:19:07.874Z,72.28
2019-05-17T22:21:38.910Z,72.28
2019-05-17T22:24:09.930Z,72.95
2019-05-17T22:26:41.261Z,72.95
2019-05-17T22:29:12.351Z,73.16
2019-05-17T22:31:43.667Z,72.81
2019-05-17T22:34:14.687Z,72.65
2019-05-17T22:36:45.752Z,71.53
2019-05-17T22:39:17.151Z,71.85
2019-05-17T22:41:48.201Z,72.25
2019-05-17T22:44:19.286Z,71.83
2019-05-17T22:46:50.334Z,72.70
2019-05-17T22:49:21.453Z,73.16
2019-05-17T22:51:53.537Z,73.17
2019-05-17T22:54:24.646Z,72.92
2019-05-17T22:56:55.799Z,73.04
2019-05-17T22:59:27.120Z,72.50
2019-05-17T23:01:58.088Z,72.88
2019-05-17T23:04:29.064Z,72.29
2019-05-17T23:07:00.333Z,72.39
2019-05-17T23:09:31.821Z,72.12
2019-05-17T23:12:03.364Z,72.47
2019-05-17T23:14:34.447Z,72.62
2019-05-17T23:17:05.943Z,73.58
2019-05-17T23:19:36.969Z,73.37
2019-05-17T23:22:08.306Z,73.16
2019-05-17T23:24:39.369Z,73.11
2019-05-17T23:27:10.627Z,72.60
2019-05-17T23:29:42.019Z,73.17
2019-05-17T23:32:13.353Z,73.68
2019-05-17T23:34:44.412Z,73.81
2019-05-17T23:37:15.792Z,74.10
2019-05-17T23:39:46.813Z,74.43
2019-05-17T23:42:18.230Z,73.99
2019-05-17T23:44:49.751Z,73.71
2019-05-17T23:47:20.719Z,73.49
2019-05-17T23:49:52.069Z,73.11
2019-05-17T23:52:23.358Z,73.22
2019-05-17T23:54:54.442Z,73.55
2019-05-17T23:57:25.759Z,73.46
2019-05-17T23:59:56.879Z,73.22
